Time;durP1;ratioP1;P1;durP2;ratioP2;P2;SDS_P1;SDS_P2;PMS_P1;PMS_P2;Temp;Humidity;BMP_temperature;BMP_pressure;BME280_temperature;BME280_humidity;BME280_pressure;Samples;Min_cycle;Max_cycle;Signal;HPM_P1;HPM_P2
2022/01/05 00:00:07;;;;;;;1.20;0.80;;;;;;;;;;5009937;28;20472;-66
2022/01/05 00:02:35;;;;;;;0.60;0.60;;;;;;;;;;5011029;28;20029;-65
2022/01/05 00:05:01;;;;;;;0.77;0.77;;;;;;;;;;5011693;28;20053;-66
2022/01/05 00:07:27;;;;;;;0.60;0.60;;;;;;;;;;5011615;28;20034;-65
2022/01/05 00:09:53;;;;;;;0.60;0.60;;;;;;;;;;5011015;28;20029;-65
2022/01/05 00:12:19;;;;;;;1.20;0.70;;;;;;;;;;5011530;28;20465;-65
2022/01/05 00:14:45;;;;;;;0.77;0.77;;;;;;;;;;5011703;28;20507;-65
2022/01/05 00:17:11;;;;;;;0.50;0.50;;;;;;;;;;5011528;28;20041;-65
2022/01/05 00:19:37;;;;;;;0.70;0.70;;;;;;;;;;5011009;28;20099;-65
2022/01/05 00:22:03;;;;;;;1.40;0.82;;;;;;;;;;5011550;28;20029;-65
2022/01/05 00:24:31;;;;;;;3.50;0.90;;;;;;;;;;5011616;28;20022;-65
2022/01/05 00:26:57;;;;;;;1.02;0.80;;;;;;;;;;5011322;28;20428;-66
2022/01/05 00:29:23;;;;;;;0.60;0.60;;;;;;;;;;5010518;28;20057;-66
2022/01/05 00:31:49;;;;;;;0.95;0.73;;;;;;;;;;5026920;28;20069;-66
2022/01/05 00:34:15;;;;;;;0.73;0.73;;;;;;;;;;5011524;28;20022;-65
2022/01/05 00:36:41;;;;;;;0.88;0.85;;;;;;;;;;5012559;28;20026;-66
2022/01/05 00:39:08;;;;;;;0.80;0.80;;;;;;;;;;5014700;28;20374;-65
2022/01/05 00:41:34;;;;;;;0.60;0.60;;;;;;;;;;5015217;28;20026;-65
2022/01/05 00:44:00;;;;;;;1.70;0.70;;;;;;;;;;5014938;28;20068;-65
2022/01/05 00:46:26;;;;;;;0.60;0.60;;;;;;;;;;5015272;28;20062;-65
2022/01/05 00:48:52;;;;;;;0.50;0.50;;;;;;;;;;5015714;28;20033;-65
2022/01/05 00:51:18;;;;;;;0.57;0.57;;;;;;;;;;5014638;28;20057;-66
2022/01/05 00:53:44;;;;;;;1.48;0.60;;;;;;;;;;5014844;28;20116;-65
2022/01/05 00:56:10;;;;;;;0.50;0.50;;;;;;;;;;5015445;28;20022;-65
2022/01/05 00:58:36;;;;;;;0.65;0.60;;;;;;;;;;5014282;28;20071;-66
2022/01/05 01:01:03;;;;;;;0.52;0.52;;;;;;;;;;5014217;28;20466;-66
2022/01/05 01:03:29;;;;;;;0.50;0.50;;;;;;;;;;5014792;28;20034;-66
2022/01/05 01:05:55;;;;;;;1.58;0.98;;;;;;;;;;5014286;28;20032;-66
2022/01/05 01:08:22;;;;;;;0.70;0.70;;;;;;;;;;5015037;28;20040;-65
2022/01/05 01:10:49;;;;;;;0.55;0.55;;;;;;;;;;5013972;28;20396;-66
2022/01/05 01:13:17;;;;;;;0.93;0.60;;;;;;;;;;5013682;28;20054;-65
2022/01/05 01:15:47;;;;;;;1.02;0.70;;;;;;;;;;5014291;28;20101;-65
2022/01/05 01:18:13;;;;;;;0.43;0.43;;;;;;;;;;5014297;28;20014;-66
2022/01/05 01:20:39;;;;;;;0.80;0.60;;;;;;;;;;5014398;28;20072;-65
2022/01/05 01:23:06;;;;;;;0.50;0.50;;;;;;;;;;5015005;28;20054;-65
2022/01/05 01:25:32;;;;;;;0.50;0.50;;;;;;;;;;5014726;28;20033;-65
2022/01/05 01:27:58;;;;;;;0.73;0.70;;;;;;;;;;5014347;28;20030;-65
2022/01/05 01:30:24;;;;;;;0.40;0.40;;;;;;;;;;5013639;28;20022;-65
2022/01/05 01:32:49;;;;;;;0.52;0.50;;;6.10;99.90;;;;;;5014090;28;20045;-65
2022/01/05 01:35:16;;;;;;;0.50;0.50;;;;;;;;;;5012669;28;20034;-65
2022/01/05 01:37:42;;;;;;;0.50;0.50;;;;;;;;;;5014151;28;20045;-65
2022/01/05 01:40:09;;;;;;;2.47;0.52;;;;;;;;;;5013444;28;20025;-65
2022/01/05 01:42:36;;;;;;;0.52;0.47;;;;;;;;;;5013846;28;20030;-65
2022/01/05 01:45:03;;;;;;;0.75;0.50;;;;;;;;;;5013492;28;20424;-65
2022/01/05 01:47:29;;;;;;;0.50;0.50;;;;;;;;;;5013769;28;20476;-65
2022/01/05 01:49:55;;;;;;;0.45;0.45;;;;;;;;;;5013141;28;20037;-65
2022/01/05 01:52:21;;;;;;;0.50;0.50;;;;;;;;;;5014032;28;20037;-65
2022/01/05 01:54:47;;;;;;;0.50;0.50;;;;;;;;;;5013842;28;20025;-65
2022/01/05 01:57:13;;;;;;;0.50;0.50;;;;;;;;;;5013674;28;20506;-65
2022/01/05 01:59:40;;;;;;;0.40;0.40;;;;;;;;;;5013297;28;20034;-66
2022/01/05 02:02:07;;;;;;;0.63;0.63;;;;;;;;;;5013567;28;20476;-65
2022/01/05 02:04:35;;;;;;;0.45;0.45;;;;;;;;;;5013562;28;20040;-65
2022/01/05 02:07:01;;;;;;;0.40;0.40;;;;;;;;;;5013244;28;20081;-66
2022/01/05 02:09:27;;;;;;;0.50;0.50;;;;;;;;;;5012413;28;20077;-66
2022/01/05 02:11:53;;;;;;;0.50;0.50;;;;;;;;;;5013340;28;20038;-65
2022/01/05 02:14:19;;;;;;;0.52;0.38;;;;;;;;;;5012999;28;20041;-65
2022/01/05 02:16:45;;;;;;;0.50;0.50;;;;;;;;;;5013054;28;20109;-65
2022/01/05 02:19:12;;;;;;;0.50;0.50;;;;;;;;;;5012570;28;20113;-65
2022/01/05 02:21:39;;;;;;;0.50;0.50;;;;;;;;;;5013179;28;20164;-64
2022/01/05 02:24:06;;;;;;;0.63;0.50;;;;;;;;;;5013771;28;20492;-65
2022/01/05 02:26:32;;;;;;;0.47;0.47;;;;;;;;;;5013899;28;20065;-64
2022/01/05 02:28:58;;;;;;;0.60;0.50;;;;;;;;;;5013545;28;20037;-63
2022/01/05 02:31:24;;;;;;;0.40;0.40;;;;;;;;;;5012582;28;20041;-63
2022/01/05 02:33:51;;;;;;;0.65;0.47;;;;;;;;;;5013037;28;20037;-64
2022/01/05 02:36:20;;;;;;;0.50;0.50;;;;;;;;;;5013250;28;20503;-64
2022/01/05 02:38:47;;;;;;;0.40;0.40;;;;;;;;;;5013214;28;20028;-66
2022/01/05 02:41:13;;;;;;;0.68;0.60;;;;;;;;;;5012348;28;20073;-65
2022/01/05 02:43:40;;;;;;;0.52;0.52;;;;;;;;;;5012528;28;20038;-64
2022/01/05 02:46:11;;;;;;;0.40;0.40;;;;;;;;;;5012088;28;20084;-65
2022/01/05 02:48:37;;;;;;;0.45;0.45;;;;;;;;;;5013019;28;20030;-65
2022/01/05 02:51:05;;;;;;;0.50;0.40;;;;;;;;;;5012001;28;20026;-63
2022/01/05 02:53:31;;;;;;;0.60;0.60;;;;;;;;;;5012601;28;20038;-65
2022/01/05 02:55:57;;;;;;;0.50;0.50;;;;;;;;;;5012534;28;20105;-65
2022/01/05 02:58:23;;;;;;;0.40;0.40;;;;;;;;;;5012326;28;20030;-64
2022/01/05 03:00:49;;;;;;;0.40;0.40;;;;;;;;;;5011574;28;20452;-65
2022/01/05 03:03:15;;;;;;;0.40;0.40;;;;;;;;;;5012622;28;20040;-65
2022/01/05 03:05:41;;;;;;;0.40;0.40;;;;;;;;;;5012159;28;20029;-65
2022/01/05 03:08:08;;;;;;;0.47;0.47;;;;;;;;;;5012471;28;20033;-65
2022/01/05 03:10:34;;;;;;;0.40;0.40;;;;;;;;;;5012314;28;20029;-64
2022/01/05 03:13:00;;;;;;;0.50;0.50;;;;;;;;;;5012183;28;20022;-65
2022/01/05 03:15:26;;;;;;;1.75;0.50;;;;;;;;;;5011958;28;20416;-65
2022/01/05 03:17:52;;;;;;;0.50;0.50;;;;;;;;;;5012374;28;20476;-66
2022/01/05 03:20:19;;;;;;;1.08;0.55;;;;;;;;;;5011324;28;20030;-66
2022/01/05 03:22:45;;;;;;;0.40;0.40;;;;;;;;;;5012449;28;20032;-65
2022/01/05 03:25:16;;;;;;;1.75;0.40;;;;;;;;;;5011792;28;20030;-65
2022/01/05 03:27:43;;;;;;;0.40;0.40;;;;;;;;;;5012042;28;20038;-65
2022/01/05 03:30:09;;;;;;;0.50;0.40;;;;;;;;;;5011483;28;20006;-65
2022/01/05 03:32:46;;;;;;;0.43;0.40;;;;;;;;;;5011148;28;20033;-65
2022/01/05 03:35:12;;;;;;;0.45;0.45;;;;;;;;;;5011774;28;20057;-65
2022/01/05 03:37:38;;;;;;;1.55;0.57;;;;;;;;;;5011908;28;20412;-65
2022/01/05 03:40:05;;;;;;;0.57;0.47;;;;;;;;;;5011445;28;20022;-65
2022/01/05 03:42:31;;;;;;;0.50;0.50;;;;;;;;;;5012053;28;20113;-64
2022/01/05 03:44:57;;;;;;;0.40;0.40;;;;;;;;;;5011614;28;20058;-63
2022/01/05 03:47:23;;;;;;;0.40;0.40;;;;;;;;;;5011553;28;20061;-65
2022/01/05 03:49:49;;;;;;;0.55;0.55;;;;;;;;;;5010982;28;20037;-65
2022/01/05 03:52:15;;;;;;;1.65;0.50;;;;;;;;;;5012083;28;20386;-64
2022/01/05 03:54:41;;;;;;;0.32;0.32;;;;;;;;;;5011868;28;20066;-64
2022/01/05 03:57:07;;;;;;;0.43;0.43;;;;;;;;;;5011487;28;20026;-65
2022/01/05 03:59:33;;;;;;;0.43;0.43;;;;;;;;;;5010822;28;20034;-65
2022/01/05 04:01:59;;;;;;;0.50;0.50;;;;;;;;;;5011506;28;20092;-63
2022/01/05 04:04:25;;;;;;;0.43;0.43;;;;;;;;;;5011698;28;20038;-64
2022/01/05 04:06:51;;;;;;;0.52;0.52;;;;;;;;;;5011450;28;20041;-66
2022/01/05 04:09:17;;;;;;;0.80;0.43;;;;;;;;;;5011251;28;20120;-65
2022/01/05 04:11:43;;;;;;;0.40;0.40;;;;;;;;;;5014873;28;20026;-65
2022/01/05 04:14:10;;;;;;;0.50;0.50;;;;;;;;;;5015284;28;20036;-65
2022/01/05 04:16:36;;;;;;;0.40;0.40;;;;;;;;;;5015254;28;20101;-65
2022/01/05 04:19:02;;;;;;;0.47;0.47;;;;;;;;;;5014788;28;20116;-66
2022/01/05 04:21:28;;;;;;;0.80;0.40;;;;;;;;;;5015396;28;20029;-66
2022/01/05 04:23:54;;;;;;;0.35;0.35;;;;;;;;;;5015246;28;20030;-65
2022/01/05 04:26:20;;;;;;;0.30;0.30;;;;;;;;;;5015197;28;20034;-65
2022/01/05 04:28:46;;;;;;;0.30;0.30;;;;;;;;;;5015047;28;20117;-66
2022/01/05 04:31:12;;;;;;;0.40;0.40;;;;;;;;;;5014871;28;20452;-65
2022/01/05 04:33:38;;;;;;;0.52;0.50;;;;;;;;;;5014931;28;20072;-64
2022/01/05 04:36:04;;;;;;;0.38;0.38;;;;;;;;;;5014903;28;20026;-64
2022/01/05 04:38:30;;;;;;;0.82;0.40;;;;;;;;;;5015153;28;20026;-65
2022/01/05 04:40:56;;;;;;;0.40;0.40;;;;;;;;;;5014236;28;20033;-64
2022/01/05 04:43:22;;;;;;;0.30;0.30;;;;;;;;;;5013340;28;20030;-64
2022/01/05 04:45:49;;;;;;;0.32;0.32;;;;;;;;;;5018955;28;20033;-66
2022/01/05 04:48:15;;;;;;;0.88;0.50;;;;;;;;;;5050112;28;20030;-65
2022/01/05 04:50:41;;;;;;;0.52;0.50;;;;;;;;;;5018914;28;20157;-63
2022/01/05 04:53:09;;;;;;;0.40;0.40;;;;;;;;;;5015213;28;20069;-62
2022/01/05 04:55:35;;;;;;;0.40;0.40;;;;;;;;;;5014924;28;20038;-65
2022/01/05 04:58:01;;;;;;;0.40;0.40;;;;;;;;;;5014671;28;20117;-65
2022/01/05 05:00:27;;;;;;;0.50;0.50;;;;;;;;;;5013421;28;20117;-65
2022/01/05 05:02:53;;;;;;;0.50;0.47;;;;;;;;;;5014754;28;20064;-65
2022/01/05 05:05:19;;;;;;;1.00;0.40;;;;;;;;;;5014341;28;20030;-65
2022/01/05 05:07:45;;;;;;;0.50;0.50;;;;;;;;;;5014647;28;20085;-64
2022/01/05 05:10:11;;;;;;;0.43;0.43;;;;;;;;;;5013842;28;20439;-64
2022/01/05 05:12:37;;;;;;;0.40;0.40;;;;;;;;;;5014555;28;20037;-64
2022/01/05 05:15:03;;;;;;;0.30;0.30;;;;;;;;;;5014079;28;20030;-63
2022/01/05 05:17:29;;;;;;;0.30;0.30;;;;;;;;;;5026633;28;20096;-64
2022/01/05 05:19:55;;;;;;;0.38;0.38;;;;;;;;;;5016582;28;20381;-64
2022/01/05 05:22:22;;;;;;;0.47;0.47;;;;;;;;;;5013647;28;20022;-63
2022/01/05 05:24:48;;;;;;;0.40;0.40;;;;;;;;;;5014315;28;20026;-65
2022/01/05 05:27:14;;;;;;;0.52;0.45;;;;;;;;;;5014057;28;20515;-65
2022/01/05 05:29:39;;;;;;;0.40;0.40;;;;;;;;;;5012940;28;20045;-64
2022/01/05 05:32:06;;;;;;;0.43;0.43;;;;;;;;;;5013979;28;20034;-64
2022/01/05 05:34:32;;;;;;;0.60;0.60;;;;;;;;;;5013769;28;20493;-64
2022/01/05 05:36:58;;;;;;;0.50;0.50;;;;;;;;;;5013672;28;20030;-63
2022/01/05 05:39:24;;;;;;;0.50;0.50;;;;;;;;;;5013144;28;20542;-64
2022/01/05 05:41:50;;;;;;;0.40;0.40;;;;;;;;;;5029122;28;20369;-64
2022/01/05 05:44:16;;;;;;;0.45;0.45;;;;;;;;;;5013679;28;20037;-64
2022/01/05 05:46:42;;;;;;;0.60;0.60;;;;;;;;;;5013491;28;20037;-64
2022/01/05 05:49:08;;;;;;;0.70;0.70;;;;;;;;;;5013284;28;20029;-64
2022/01/05 05:51:34;;;;;;;0.60;0.60;;;;;;;;;;5013615;28;20453;-65
2022/01/05 05:54:00;;;;;;;0.70;0.70;;;;;;;;;;5013588;28;20030;-64
2022/01/05 05:56:26;;;;;;;0.50;0.50;;;;;;;;;;5013283;28;20041;-64
2022/01/05 05:58:52;;;;;;;0.80;0.80;;;;;;;;;;5013112;28;20037;-64
2022/01/05 06:01:19;;;;;;;0.82;0.82;;;;;;;;;;5012953;28;20053;-63
2022/01/05 06:03:45;;;;;;;1.30;1.00;;;;;;;;;;5013621;28;20453;-63
2022/01/05 06:06:11;;;;;;;1.58;0.98;;;;;;;;;;5013315;28;20034;-61
2022/01/05 06:08:36;;;;;;;0.93;0.93;;;5.50;99.90;;;;;;5013522;28;20038;-64
2022/01/05 06:11:02;;;;;;;0.98;0.98;;;5.50;99.90;;;;;;5012487;28;20034;-65
2022/01/05 06:13:28;;;;;;;1.42;1.05;;;5.30;99.90;;;;;;5012933;28;20065;-64
2022/01/05 06:15:53;;;;;;;0.80;0.80;;;6.00;99.90;;;;;;5013233;28;20022;-64
2022/01/05 06:18:19;;;;;;;0.85;0.80;;;4.50;99.90;;;;;;5013224;28;20546;-64
2022/01/05 06:20:45;;;;;;;2.45;1.10;;;;;;;;;;5003892;28;20156;-69
2022/01/05 06:23:11;;;;;;;1.15;0.80;;;5.80;99.90;;;;;;5007008;28;20092;-68
2022/01/05 06:25:36;;;;;;;0.98;0.82;;;5.30;99.90;;;;;;5006639;28;20481;-68
2022/01/05 06:28:02;;;;;;;1.95;1.00;;;4.80;99.90;;;;;;5012094;28;20461;-69
2022/01/05 06:30:28;;;;;;;0.70;0.70;;;4.50;99.90;;;;;;5011816;28;20037;-70
2022/01/05 06:32:53;;;;;;;1.15;1.05;;;4.10;99.90;;;;;;5012490;28;20037;-70
2022/01/05 06:35:23;;;;;;;0.90;0.90;;;3.50;99.90;;;;;;5011855;28;20084;-69
2022/01/05 06:37:49;;;;;;;0.80;0.80;;;;;;;;;;5012954;28;20033;-69
2022/01/05 06:40:15;;;;;;;0.88;0.88;;;4.90;99.90;;;;;;5012118;28;20030;-70
2022/01/05 06:42:41;;;;;;;1.25;0.85;;;;;;;;;;5012392;28;20037;-72
2022/01/05 06:45:07;;;;;;;1.38;1.10;;;4.10;99.90;;;;;;5012484;28;20100;-71
2022/01/05 06:47:33;;;;;;;2.00;1.23;;;4.10;99.90;;;;;;5012694;28;20056;-71
2022/01/05 06:49:58;;;;;;;1.00;1.00;;;4.40;99.90;;;;;;5012127;28;20485;-71
2022/01/05 06:52:24;;;;;;;0.95;0.95;;;3.90;99.90;;;;;;5011793;28;20117;-71
2022/01/05 06:54:50;;;;;;;1.00;0.90;;;4.40;99.90;;;;;;5013790;28;20037;-73
2022/01/05 06:57:15;;;;;;;2.65;0.90;;;3.90;99.90;;;;;;5014970;28;20041;-74
2022/01/05 06:59:41;;;;;;;1.35;1.10;;;4.80;99.90;;;;;;5014081;28;20144;-74
2022/01/05 07:02:06;;;;;;;1.58;1.10;;;3.40;99.90;;;;;;5014913;28;20061;-72
2022/01/05 07:04:32;;;;;;;0.90;0.90;;;4.20;99.90;;;;;;5014629;28;20026;-74
2022/01/05 07:06:58;;;;;;;0.90;0.90;;;4.60;99.90;;;;;;5012906;28;20029;-74
2022/01/05 07:09:24;;;;;;;0.82;0.82;;;4.00;99.90;;;;;;5011747;28;20025;-74
2022/01/05 07:11:50;;;;;;;1.10;0.90;;;4.50;99.90;;;;;;5012200;28;20033;-74
2022/01/05 07:14:15;;;;;;;0.90;0.90;;;4.60;99.90;;;;;;5012026;28;20052;-74
2022/01/05 07:16:41;;;;;;;0.70;0.70;;;4.40;99.90;;;;;;5011111;28;20025;-69
2022/01/05 07:19:06;;;;;;;1.67;1.00;;;3.70;99.90;;;;;;5011942;28;20030;-69
2022/01/05 07:21:33;;;;;;;1.02;1.02;;;6.80;99.90;;;;;;5010973;28;20504;-70
2022/01/05 07:24:00;;;;;;;0.88;0.85;;;;;;;;;;5011456;28;20115;-70
2022/01/05 07:26:27;;;;;;;1.42;1.20;;;;;;;;;;5008164;28;20033;-69
2022/01/05 07:28:54;;;;;;;0.90;0.90;;;4.30;99.90;;;;;;5012388;28;20029;-69
2022/01/05 07:31:20;;;;;;;0.90;0.90;;;;;;;;;;5033681;28;20021;-70
2022/01/05 07:33:45;;;;;;;4.03;1.17;;;3.90;99.90;;;;;;5035495;28;20026;-69
2022/01/05 07:36:11;;;;;;;0.90;0.90;;;5.00;99.90;;;;;;5016109;28;20096;-69
2022/01/05 07:38:37;;;;;;;0.90;0.90;;;4.80;99.90;;;;;;5011869;28;20109;-69
2022/01/05 07:41:03;;;;;;;1.63;1.20;;;;;;;;;;5011291;28;20034;-72
2022/01/05 07:43:29;;;;;;;1.00;1.00;;;3.70;99.90;;;;;;5011746;28;20492;-71
2022/01/05 07:45:54;;;;;;;0.93;0.93;;;3.40;99.90;;;;;;5011161;28;20112;-71
2022/01/05 07:48:20;;;;;;;0.70;0.70;;;5.70;99.90;;;;;;5011934;28;20117;-72
2022/01/05 07:50:46;;;;;;;1.00;1.00;;;4.00;99.90;;;;;;5011272;28;20026;-71
2022/01/05 07:53:12;;;;;;;2.50;1.27;;;;;;;;;;5011341;28;20045;-70
2022/01/05 07:55:38;;;;;;;1.88;1.10;;;;;;;;;;5011552;28;20068;-71
2022/01/05 07:58:06;;;;;;;2.83;1.30;;;;;;;;;;5011787;28;20037;-71
2022/01/05 08:00:31;;;;;;;3.90;1.50;;;3.90;99.90;;;;;;5026005;28;20022;-71
2022/01/05 08:02:57;;;;;;;1.75;1.60;;;4.70;99.90;;;;;;5011513;28;20530;-71
2022/01/05 08:05:23;;;;;;;1.73;1.27;;;;;;;;;;5011225;28;20030;-71
2022/01/05 08:07:49;;;;;;;1.60;1.50;;;;;;;;;;5009657;28;20061;-71
2022/01/05 08:10:15;;;;;;;2.28;1.50;;;2.80;99.90;;;;;;5011275;28;20109;-70
2022/01/05 08:12:42;;;;;;;2.95;1.60;;;;;;;;;;5011521;28;20033;-71
2022/01/05 08:15:09;;;;;;;1.75;1.30;;;;;;;;;;5010975;28;20026;-71
2022/01/05 08:17:35;;;;;;;4.68;1.67;;;;;;;;;;5011409;28;20101;-71
2022/01/05 08:20:03;;;;;;;4.68;1.73;;;;;;;;;;5011101;28;20109;-70
2022/01/05 08:22:28;;;;;;;6.22;1.58;;;3.80;99.90;;;;;;5011036;28;20100;-71
2022/01/05 08:24:54;;;;;;;4.78;1.50;;;;;;;;;;5011041;28;20480;-71
2022/01/05 08:27:20;;;;;;;3.50;1.70;;;;;;;;;;5010031;28;20034;-71
2022/01/05 08:29:46;;;;;;;2.92;1.25;;;;;;;;;;5010376;28;20030;-71
2022/01/05 08:32:14;;;;;;;5.47;1.60;;;3.80;99.90;;;;;;5011403;28;20485;-71
2022/01/05 08:34:40;;;;;;;3.33;1.50;;;;;;;;;;5009815;28;20482;-72
2022/01/05 08:37:06;;;;;;;5.20;1.75;;;6.50;99.90;;;;;;5001096;28;20038;-70
2022/01/05 08:39:31;;;;;;;2.05;1.52;;;3.90;99.90;;;;;;4990983;28;20027;-70
2022/01/05 08:41:57;;;;;;;2.60;1.70;;;4.50;99.90;;;;;;4991658;28;20030;-69
2022/01/05 08:44:22;;;;;;;4.60;1.80;;;4.40;99.90;;;;;;4991580;28;20484;-70
2022/01/05 08:46:48;;;;;;;6.82;1.38;;;;;;;;;;4991630;28;20023;-69
2022/01/05 08:49:15;;;;;;;5.78;2.15;;;4.60;99.90;;;;;;4991115;28;20077;-70
2022/01/05 08:51:42;;;;;;;4.65;1.98;;;4.20;99.90;;;;;;4991410;28;20132;-71
2022/01/05 08:54:08;;;;;;;3.72;1.63;;;;;;;;;;4991395;28;20034;-73
2022/01/05 08:56:33;;;;;;;6.18;2.30;;;3.60;99.90;;;;;;4991624;28;20062;-71
2022/01/05 08:58:59;;;;;;;5.68;1.65;;;;;;;;;;5028276;28;20045;-71
2022/01/05 09:01:26;;;;;;;4.47;1.60;;;;;;;;;;5014173;28;20487;-71
2022/01/05 09:03:53;;;;;;;6.13;1.92;;;;;;;;;;5014650;28;20042;-71
2022/01/05 09:06:22;;;;;;;2.97;1.40;;;;;;;;;;5014335;28;20038;-71
2022/01/05 09:08:49;;;;;;;7.05;1.90;;;;;;;;;;5014458;28;20405;-70
2022/01/05 09:11:15;;;;;;;5.50;1.90;;;;;;;;;;5013944;28;20555;-71
2022/01/05 09:13:42;;;;;;;5.18;1.83;;;4.60;99.90;;;;;;5014710;28;20400;-72
2022/01/05 09:16:07;;;;;;;6.78;1.60;;;4.30;99.90;;;;;;5015241;28;20018;-70
2022/01/05 09:18:34;;;;;;;3.78;1.52;;;;;;;;;;5015847;28;20521;-71
2022/01/05 09:20:59;;;;;;;4.40;1.55;;;5.40;99.90;;;;;;5014156;28;20034;-71
2022/01/05 09:23:26;;;;;;;7.53;2.55;;;;;;;;;;5014383;28;20030;-72
2022/01/05 09:25:51;;;;;;;2.28;1.52;;;8.70;99.90;;;;;;5012488;28;20040;-64
2022/01/05 09:28:17;;;;;;;4.28;2.13;;;;;;;;;;5014309;28;20026;-63
2022/01/05 09:30:46;;;;;;;7.05;1.80;;;;;;;;;;5013216;28;20062;-66
2022/01/05 09:33:12;;;;;;;7.18;1.70;;;;;;;;;;5013815;28;20034;-70
2022/01/05 09:38:10;;;;;;;4.35;1.33;;;7.50;99.90;;;;;;5016849;28;20068;-64
2022/01/05 09:43:21;;;;;;;6.25;1.92;;;7.80;99.90;;;;;;5020186;28;20038;-62
2022/01/05 09:45:57;;;;;;;2.70;1.45;;;;;;;;;;4994417;28;20027;-62
2022/01/05 09:48:26;;;;;;;3.53;1.33;;;;;;;;;;4997524;28;20018;-63
2022/01/05 09:50:58;;;;;;;3.80;1.70;;;;;;;;;;4993739;28;20022;-63
2022/01/05 09:53:24;;;;;;;5.78;2.03;;;;;;;;;;4994573;28;20026;-61
2022/01/05 09:55:51;;;;;;;7.05;2.03;;;;;;;;;;4994154;28;20397;-62
2022/01/05 09:58:19;;;;;;;4.10;1.65;;;;;;;;;;4994353;28;20054;-62
2022/01/05 10:00:45;;;;;;;4.07;1.73;;;;;;;;;;4993867;28;20061;-62
2022/01/05 10:03:14;;;;;;;5.55;1.90;;;;;;;;;;4994343;28;20077;-62
2022/01/05 10:05:40;;;;;;;4.25;1.90;;;8.30;99.90;;;;;;4994312;28;20025;-63
2022/01/05 10:08:06;;;;;;;6.72;2.20;;;;;;;;;;5027472;28;20092;-63
2022/01/05 10:10:32;;;;;;;5.60;2.05;;;;;;;;;;5012807;28;20036;-62
2022/01/05 10:12:58;;;;;;;4.63;1.65;;;;;;;;;;5013332;28;20025;-64
2022/01/05 10:15:26;;;;;;;7.38;2.45;;;;;;;;;;5013081;28;20037;-63
2022/01/05 10:18:08;;;;;;;8.32;1.75;;;;;;;;;;5013364;28;20030;-63
2022/01/05 10:20:34;;;;;;;4.93;1.98;;;;;;;;;;5012759;28;20546;-62
2022/01/05 10:22:59;;;;;;;4.85;2.03;;;5.60;99.90;;;;;;5013294;28;20022;-63
2022/01/05 10:25:25;;;;;;;9.88;1.75;;;3.80;99.90;;;;;;5013406;28;20041;-63
2022/01/05 10:27:55;;;;;;;7.53;2.20;;;;;;;;;;5013665;28;20120;-62
2022/01/05 10:30:32;;;;;;;5.03;1.90;;;6.00;99.90;;;;;;5012784;28;20511;-63
2022/01/05 10:32:57;;;;;;;6.93;1.80;;;4.60;99.90;;;;;;5013388;28;20404;-63
2022/01/05 10:35:27;;;;;;;9.38;2.03;;;;;;;;;;5003346;28;20035;-63
2022/01/05 10:37:57;;;;;;;9.60;1.90;;;;;;;;;;5026124;28;20112;-63
2022/01/05 10:40:23;;;;;;;8.55;2.45;;;;;;;;;;5031958;28;20541;-64
2022/01/05 10:42:51;;;;;;;4.93;1.80;;;;;;;;;;5019707;28;20089;-64
2022/01/05 10:45:18;;;;;;;8.55;2.13;;;;;;;;;;5010846;28;20037;-64
2022/01/05 10:48:01;;;;;;;7.90;2.00;;;;;;;;;;5006018;28;20233;-65
2022/01/05 10:50:27;;;;;;;;;;;;;;;;;;5005532;28;20400;-72
2022/01/05 10:52:54;;;;;;;5.85;1.55;;;;;;;;;;5005443;28;19905;-72
2022/01/05 10:55:23;;;;;;;9.27;2.30;;;;;;;;;;5011478;28;20404;-73
2022/01/05 10:58:02;;;;;;;4.68;1.77;;;;;;;;;;5012083;28;20102;-72
2022/01/05 11:00:34;;;;;;;7.13;1.85;;;;;;;;;;5011647;28;20152;-72
2022/01/05 11:03:01;;;;;;;7.00;2.05;;;;;;;;;;5012194;28;20026;-73
2022/01/05 11:05:27;;;;;;;11.05;1.90;;;;;;;;;;5012707;28;20030;-72
2022/01/05 11:08:06;;;;;;;8.00;1.48;;;;;;;;;;5029272;28;20575;-69
2022/01/05 11:10:32;;;;;;;7.07;1.70;;;;;;;;;;5020190;28;20061;-70
2022/01/05 11:12:57;;;;;;;6.40;1.73;;;9.80;93.50;;;;;;5011340;28;20088;-69
2022/01/05 11:15:31;;;;;;;8.45;2.78;;;;;;;;;;5008381;28;20030;-74
2022/01/05 11:18:13;;;;;;;8.40;2.13;;;;;;;;;;5009355;28;20399;-75
2022/01/05 11:20:43;;;;;;;7.18;2.13;;;;;;;;;;5010816;28;20084;-76
2022/01/05 11:23:10;;;;;;;9.43;1.88;;;9.00;94.70;;;;;;5011471;28;20022;-76
2022/01/05 11:25:37;;;;;;;8.48;1.83;;;;;;;;;;5012234;28;20049;-76
2022/01/05 11:28:03;;;;;;;8.05;2.58;;;;;;;;;;5009240;28;20026;-78
2022/01/05 11:30:29;;;;;;;7.82;1.92;;;;;;;;;;5011902;28;20077;-76
2022/01/05 11:32:55;;;;;;;6.72;2.10;;;10.00;91.50;;;;;;5009058;28;20076;-76
2022/01/05 11:35:21;;;;;;;7.65;2.30;;;;;;;;;;5012883;28;20061;-77
2022/01/05 11:37:47;;;;;;;8.15;2.17;;;;;;;;;;5015756;28;20033;-78
2022/01/05 11:40:14;;;;;;;5.43;2.45;;;10.80;93.30;;;;;;5011534;28;20036;-75
2022/01/05 11:42:41;;;;;;;9.55;2.33;;;;;;;;;;5011630;28;20029;-77
2022/01/05 11:45:08;;;;;;;7.45;1.80;;;13.10;89.80;;;;;;5012003;28;20034;-78
2022/01/05 11:47:39;;;;;;;6.88;2.08;;;;;;;;;;5012068;28;20030;-76
2022/01/05 11:50:13;;;;;;;7.63;2.10;;;;;;;;;;5010622;28;20463;-77
2022/01/05 11:52:59;;;;;;;12.00;3.25;;;;;;;;;;5011219;28;20152;-75
2022/01/05 11:55:30;;;;;;;7.78;2.55;;;11.40;94.00;;;;;;5005734;28;20045;-77
2022/01/05 11:58:26;;;;;;;3.95;1.70;;;;;;;;;;5012067;28;20018;-75
2022/01/05 12:01:11;;;;;;;7.25;1.70;;;;;;;;;;4998690;28;20029;-75
2022/01/05 12:03:52;;;;;;;6.80;1.77;;;;;;;;;;5012065;28;20453;-76
2022/01/05 12:06:21;;;;;;;4.28;1.50;;;;;;;;;;5015878;28;20092;-76
2022/01/05 12:08:51;;;;;;;4.70;1.65;;;;;;;;;;5031687;28;20028;-76
2022/01/05 12:11:43;;;;;;;8.85;1.85;;;;;;;;;;5031091;28;20028;-76
2022/01/05 12:14:21;;;;;;;7.50;2.03;;;;;;;;;;5028129;28;20120;-76
2022/01/05 12:17:02;;;;;;;6.40;1.60;;;9.00;98.10;;;;;;5031437;28;20026;-74
2022/01/05 12:19:55;;;;;;;8.77;2.67;;;9.70;97.60;;;;;;5030851;28;20033;-75
2022/01/05 12:22:23;;;;;;;7.30;1.70;;;;;;;;;;5020983;28;20038;-75
2022/01/05 12:25:00;;;;;;;11.02;1.95;;;;;;;;;;5034800;28;20025;-74
2022/01/05 12:27:33;;;;;;;5.55;1.70;;;6.70;98.90;;;;;;5039073;28;20029;-76
2022/01/05 12:30:01;;;;;;;7.68;2.45;;;;;;;;;;5018676;28;20053;-76
2022/01/05 12:32:35;;;;;;;9.88;3.45;;;8.60;99.90;;;;;;5012575;28;20109;-75
2022/01/05 12:35:02;;;;;;;11.52;2.75;;;;;;;;;;5015029;28;20097;-72
2022/01/05 12:37:47;;;;;;;7.97;2.10;;;;;;;;;;5028767;28;20053;-72
2022/01/05 12:40:32;;;;;;;7.88;2.15;;;;;;;;;;5035213;28;20476;-73
2022/01/05 12:43:11;;;;;;;6.20;2.08;;;;;;;;;;5035456;28;20051;-74
2022/01/05 12:45:46;;;;;;;9.40;2.53;;;;;;;;;;5035504;28;20094;-73
2022/01/05 12:48:31;;;;;;;7.65;2.40;;;;;;;;;;4997008;28;20037;-70
2022/01/05 12:51:12;;;;;;;9.35;2.10;;;;;;;;;;4994954;28;20027;-68
2022/01/05 12:53:50;;;;;;;7.35;2.00;;;;;;;;;;4994565;28;20038;-67
2022/01/05 12:56:19;;;;;;;9.43;1.98;;;;;;;;;;4995226;28;20491;-68
2022/01/05 12:58:47;;;;;;;7.05;2.20;;;;;;;;;;5006837;28;20026;-67
2022/01/05 13:01:13;;;;;;;7.28;2.00;;;;;;;;;;5013891;28;20076;-68
2022/01/05 13:03:40;;;;;;;6.18;2.10;;;6.80;98.50;;;;;;5014767;28;20026;-68
2022/01/05 13:06:20;;;;;;;12.73;2.30;;;;;;;;;;5017199;28;20022;-69
2022/01/05 13:08:50;;;;;;;5.22;2.22;;;;;;;;;;5034574;28;20029;-69
2022/01/05 13:11:32;;;;;;;6.65;2.22;;;;;;;;;;5033709;28;20032;-70
2022/01/05 13:14:14;;;;;;;12.52;2.72;;;;;;;;;;5034380;28;20037;-70
2022/01/05 13:16:41;;;;;;;11.52;2.10;;;;;;;;;;5034508;28;20041;-70
2022/01/05 13:19:13;;;;;;;6.88;1.95;;;;;;;;;;5033767;28;20030;-70
2022/01/05 13:21:48;;;;;;;10.85;1.90;;;;;;;;;;5034066;28;20045;-70
2022/01/05 13:24:15;;;;;;;8.70;2.00;;;6.60;99.90;;;;;;5032815;28;20308;-70
2022/01/05 13:26:59;;;;;;;7.30;1.90;;;8.30;99.90;;;;;;5033884;28;20068;-69
2022/01/05 13:29:28;;;;;;;4.80;1.73;;;6.80;99.90;;;;;;5033249;28;20034;-70
2022/01/05 13:31:58;;;;;;;7.40;2.08;;;;;;;;;;5034421;28;20036;-70
2022/01/05 13:34:31;;;;;;;6.30;1.90;;;;;;;;;;5033084;28;20029;-70
2022/01/05 13:36:57;;;;;;;5.50;1.77;;;7.20;99.90;;;;;;5033625;28;20116;-69
2022/01/05 13:39:35;;;;;;;6.22;2.20;;;;;;;;;;5032423;28;20431;-71
2022/01/05 13:42:01;;;;;;;8.38;1.83;;;8.40;96.70;;;;;;5034112;28;20041;-69
2022/01/05 13:44:27;;;;;;;7.57;1.73;;;;;;;;;;5033596;28;20033;-73
2022/01/05 13:46:53;;;;;;;3.78;1.52;;;8.80;95.30;;;;;;5013810;28;20038;-72
2022/01/05 13:49:19;;;;;;;5.30;1.60;;;;;;;;;;5008165;28;20121;-72
2022/01/05 13:52:01;;;;;;;8.18;1.92;;;8.90;95.40;;;;;;5008422;28;20030;-71
2022/01/05 13:54:27;;;;;;;6.82;1.90;;;10.40;94.60;;;;;;5010519;28;20033;-70
2022/01/05 13:56:52;;;;;;;5.57;2.00;;;11.60;94.50;;;;;;5009315;28;20034;-69
2022/01/05 13:59:18;;;;;;;3.83;1.67;;;10.20;93.40;;;;;;5013006;28;20537;-69
2022/01/05 14:01:58;;;;;;;8.57;2.03;;;11.00;93.60;;;;;;5013474;28;20026;-68
2022/01/05 14:04:24;;;;;;;8.07;1.70;;;12.10;93.60;;;;;;5007281;28;20025;-69
2022/01/05 14:07:00;;;;;;;5.85;1.70;;;10.20;92.80;;;;;;5021675;28;20029;-69
2022/01/05 14:09:30;;;;;;;7.75;1.73;;;10.90;93.80;;;;;;5031549;28;20037;-69
2022/01/05 14:11:57;;;;;;;5.22;1.88;;;9.40;92.30;;;;;;5033367;28;20475;-69
2022/01/05 14:14:24;;;;;;;3.58;1.52;;;11.00;92.70;;;;;;5033126;28;20432;-68
2022/01/05 14:16:51;;;;;;;4.68;1.80;;;10.40;92.90;;;;;;5028745;28;20029;-69
2022/01/05 14:19:16;;;;;;;6.63;2.20;;;9.00;93.30;;;;;;5007167;28;20053;-69